Time;durP1;ratioP1;P1;durP2;ratioP2;P2;SDS_P1;SDS_P2;PMS_P1;PMS_P2;Temp;Humidity;BMP_temperature;BMP_pressure;BME280_temperature;BME280_humidity;BME280_pressure;Samples;Min_cycle;Max_cycle;Signal;HPM_P1;HPM_P2
2022/11/24 00:00:13;;;;;;;14.82;3.30;;;8.50;85.70;;;;;;9179598;19;20460;-67
2022/11/24 00:03:19;;;;;;;14.20;3.63;;;8.50;85.60;;;;;;9179158;19;20490;-67
2022/11/24 00:06:23;;;;;;;19.52;4.10;;;8.40;85.60;;;;;;9181412;19;20447;-68
2022/11/24 00:09:27;;;;;;;17.42;4.30;;;8.40;85.70;;;;;;9179119;19;20081;-68
2022/11/24 00:12:31;;;;;;;;;;;8.40;85.70;;;;;;9181909;19;20593;-67
2022/11/24 00:15:35;;;;;;;14.85;4.07;;;8.40;85.80;;;;;;9180953;19;19930;-68
2022/11/24 00:18:41;;;;;;;;;;;8.30;85.60;;;;;;9179676;19;20019;-68
2022/11/24 00:21:45;;;;;;;24.35;4.45;;;8.30;85.70;;;;;;9177726;19;19918;-67
2022/11/24 00:24:49;;;;;;;;;;;8.30;85.60;;;;;;9181573;19;20029;-67
2022/11/24 00:27:54;;;;;;;21.37;3.60;;;8.30;85.70;;;;;;9181423;19;19939;-68
2022/11/24 00:30:57;;;;;;;17.42;3.05;;;8.30;85.70;;;;;;9179879;19;20018;-68
2022/11/24 00:34:05;;;;;;;18.65;4.00;;;8.30;85.80;;;;;;9180773;19;20027;-68
2022/11/24 00:37:09;;;;;;;26.00;3.22;;;8.30;85.90;;;;;;9178189;19;20042;-69
2022/11/24 00:40:13;;;;;;;;;;;8.20;85.80;;;;;;9179307;19;20535;-67
2022/11/24 00:43:17;;;;;;;19.73;3.78;;;8.20;85.80;;;;;;9179467;19;19919;-69
2022/11/24 00:46:21;;;;;;;;;;;8.20;85.80;;;;;;9179606;19;20368;-68
2022/11/24 00:49:27;;;;;;;15.60;3.15;;;8.20;85.80;;;;;;9178706;19;19914;-67
2022/11/24 00:52:31;;;;;;;20.08;3.55;;;8.20;85.80;;;;;;9176230;19;20017;-68
2022/11/24 00:55:35;;;;;;;;;;;8.10;85.80;;;;;;9173545;19;20567;-67
2022/11/24 00:58:39;;;;;;;23.37;3.97;;;8.10;85.80;;;;;;9179702;19;19925;-67
2022/11/24 01:01:43;;;;;;;21.10;3.75;;;8.10;85.80;;;;;;9176033;19;20014;-68
2022/11/24 01:04:49;;;;;;;23.13;4.25;;;8.10;85.90;;;;;;9177953;19;20019;-67
2022/11/24 01:07:53;;;;;;;17.55;3.40;;;8.10;85.90;;;;;;9179812;19;20018;-68
2022/11/24 01:11:11;;;;;;;16.73;3.80;;;8.10;86.00;;;;;;9178811;19;20014;-67
2022/11/24 01:14:15;;;;;;;16.20;3.70;;;8.10;86.10;;;;;;9178569;19;20022;-67
2022/11/24 01:17:19;;;;;;;24.17;3.63;;;8.10;86.10;;;;;;9179533;19;20015;-67
2022/11/24 01:20:25;;;;;;;19.10;3.42;;;8.10;86.10;;;;;;9176607;19;20427;-68
2022/11/24 01:23:29;;;;;;;22.80;3.70;;;8.10;86.10;;;;;;9179087;19;20006;-67
2022/11/24 01:26:32;;;;;;;;;;;8.10;86.20;;;;;;9179899;19;20011;-68
2022/11/24 01:29:36;;;;;;;20.33;3.77;;;8.10;86.20;;;;;;9179251;19;19914;-68
2022/11/24 01:32:40;;;;;;;;;;;8.10;86.10;;;;;;9176518;19;20464;-68
2022/11/24 01:35:46;;;;;;;28.15;4.90;;;8.10;86.10;;;;;;9178475;19;20502;-68
2022/11/24 01:38:50;;;;;;;18.58;3.83;;;8.10;86.10;;;;;;9178558;19;20336;-67
2022/11/24 01:41:53;;;;;;;;;;;8.10;86.10;;;;;;9175435;19;20022;-68
2022/11/24 01:45:27;;;;;;;18.47;3.17;;;8.10;86.20;;;;;;9178041;19;19918;-67
2022/11/24 01:48:38;;;;;;;24.58;3.58;;;8.10;86.10;;;;;;9177707;19;20026;-67
2022/11/24 01:51:51;;;;;;;17.65;3.10;;;8.10;86.20;;;;;;9176542;19;20025;-68
2022/11/24 01:54:58;;;;;;;16.85;4.82;;;8.10;86.20;;;;;;9172783;19;20014;-68
2022/11/24 01:58:06;;;;;;;21.15;3.47;;;8.10;86.30;;;;;;9177344;19;20781;-67
2022/11/24 02:01:10;;;;;;;24.13;4.20;;;8.10;86.30;;;;;;9175114;19;20022;-68
2022/11/24 02:04:18;;;;;;;21.52;3.47;;;8.10;86.40;;;;;;9177919;19;20368;-67
2022/11/24 02:07:24;;;;;;;20.58;3.75;;;8.10;86.40;;;;;;9175197;19;20011;-67
2022/11/24 02:10:29;;;;;;;29.48;3.70;;;8.10;86.50;;;;;;9175241;19;20031;-67
2022/11/24 02:13:35;;;;;;;22.98;3.53;;;8.10;86.40;;;;;;9177318;19;20018;-67
2022/11/24 02:16:41;;;;;;;22.27;3.25;;;8.10;86.60;;;;;;9174314;19;20042;-67
2022/11/24 02:19:55;;;;;;;24.67;4.53;;;8.10;86.60;;;;;;9173605;19;20061;-67
2022/11/24 02:23:06;;;;;;;15.02;3.10;;;8.10;86.60;;;;;;9176588;19;20021;-67
2022/11/24 02:26:19;;;;;;;15.95;3.38;;;8.10;86.60;;;;;;9176935;19;20007;-67
2022/11/24 02:29:25;;;;;;;32.70;4.90;;;8.20;86.60;;;;;;9172811;19;20022;-67
2022/11/24 02:32:30;;;;;;;21.00;3.45;;;8.10;86.50;;;;;;9175944;19;20054;-69
2022/11/24 02:35:35;;;;;;;19.17;2.85;;;8.10;86.60;;;;;;9175849;19;20014;-67
2022/11/24 02:38:39;;;;;;;13.13;2.67;;;8.10;86.60;;;;;;9174893;19;20006;-67
2022/11/24 02:41:43;;;;;;;;;;;8.20;86.60;;;;;;9173488;19;20018;-67
2022/11/24 02:44:53;;;;;;;26.85;3.63;;;8.20;86.70;;;;;;9175723;19;19910;-67
2022/11/24 02:47:57;;;;;;;29.08;3.65;;;8.20;86.60;;;;;;9175053;19;20037;-67
2022/11/24 02:51:01;;;;;;;28.17;4.57;;;8.20;87.20;;;;;;9174912;19;20018;-68
2022/11/24 02:54:05;;;;;;;;;;;8.20;86.60;;;;;;9170675;19;20014;-68
2022/11/24 02:57:09;;;;;;;28.95;3.05;;;8.20;86.70;;;;;;9175224;19;19918;-67
2022/11/24 03:00:17;;;;;;;21.70;4.00;;;8.20;86.50;;;;;;9173461;19;20011;-68
2022/11/24 03:03:21;;;;;;;24.40;3.33;;;8.20;86.60;;;;;;9174904;19;20014;-68
2022/11/24 03:06:24;;;;;;;;;;;8.30;86.70;;;;;;9176107;19;20093;-68
2022/11/24 03:09:28;;;;;;;15.40;3.57;;;8.30;86.70;;;;;;9174340;19;19937;-69
2022/11/24 03:12:32;;;;;;;;;;;8.20;86.50;;;;;;9175606;19;20006;-67
2022/11/24 03:15:38;;;;;;;22.10;3.15;;;8.30;86.70;;;;;;9173993;19;19922;-67
2022/11/24 03:18:42;;;;;;;22.13;3.30;;;8.30;86.50;;;;;;9174319;19;20511;-67
2022/11/24 03:21:45;;;;;;;;;;;8.30;86.60;;;;;;9180163;19;20017;-67
2022/11/24 03:24:49;;;;;;;18.20;3.67;;;8.30;86.70;;;;;;9181124;19;19927;-67
2022/11/24 03:27:53;;;;;;;;;;;8.30;87.20;;;;;;9183359;19;20018;-67
2022/11/24 03:30:59;;;;;;;20.75;3.10;;;8.20;86.50;;;;;;9181408;19;19918;-68
2022/11/24 03:34:03;;;;;;;25.48;3.45;;;8.30;86.60;;;;;;9182443;19;20010;-67
2022/11/24 03:37:06;;;;;;;;;;;8.30;86.60;;;;;;9184222;19;20022;-67
2022/11/24 03:40:11;;;;;;;18.98;2.60;;;8.30;86.70;;;;;;9179302;19;19930;-67
2022/11/24 03:43:15;;;;;;;20.33;2.63;;;8.30;86.60;;;;;;9180630;19;20006;-68
2022/11/24 03:46:21;;;;;;;19.30;3.55;;;8.30;86.70;;;;;;9182520;19;20054;-67
2022/11/24 03:49:25;;;;;;;19.33;3.58;;;8.30;86.70;;;;;;9180045;19;20646;-67
2022/11/24 03:52:29;;;;;;;;;;;8.30;86.70;;;;;;9180789;19;20357;-67
2022/11/24 03:55:33;;;;;;;13.35;2.97;;;8.30;86.70;;;;;;9176688;19;19929;-68
2022/11/24 03:58:37;;;;;;;;;;;8.30;86.60;;;;;;9182858;19;20507;-67
2022/11/24 04:01:43;;;;;;;23.08;3.00;;;8.30;86.70;;;;;;9178391;19;19951;-67
2022/11/24 04:04:51;;;;;;;29.98;4.07;;;8.30;86.60;;;;;;9179573;19;20025;-66
2022/11/24 04:07:57;;;;;;;21.77;2.80;;;8.30;86.70;;;;;;9179231;19;20179;-69
2022/11/24 04:11:01;;;;;;;17.92;3.25;;;8.30;86.70;;;;;;9179193;19;20091;-68
2022/11/24 04:14:03;;;;;;;;;;;8.30;86.70;;;;;;9179972;19;20475;-67
2022/11/24 04:17:14;;;;;;;20.92;4.18;;;8.30;86.70;;;;;;9180555;19;20272;-68
2022/11/24 04:20:18;;;;;;;21.20;2.97;;;8.30;86.60;;;;;;9178834;19;20066;-68
2022/11/24 04:23:22;;;;;;;18.98;3.10;;;8.30;86.60;;;;;;9180781;19;20014;-68
2022/11/24 04:26:26;;;;;;;17.77;2.90;;;8.30;86.60;;;;;;9180235;19;20368;-68
2022/11/24 04:29:30;;;;;;;18.02;2.90;;;8.30;86.60;;;;;;9180032;19;20021;-68
2022/11/24 04:32:36;;;;;;;16.50;2.85;;;8.30;86.70;;;;;;9178276;19;20042;-69
2022/11/24 04:35:40;;;;;;;18.77;3.15;;;8.20;86.60;;;;;;9179342;19;20022;-67
2022/11/24 04:38:43;;;;;;;14.43;2.92;;;8.30;86.70;;;;;;9178940;19;20010;-68
2022/11/24 04:42:07;;;;;;;15.60;3.10;;;8.20;86.60;;;;;;9177383;19;20022;-67
2022/11/24 04:45:12;;;;;;;22.95;3.85;;;8.20;86.60;;;;;;9179818;19;20519;-68
2022/11/24 04:48:17;;;;;;;28.05;3.65;;;8.20;86.60;;;;;;9180020;19;20022;-67
2022/11/24 04:51:21;;;;;;;16.38;3.90;;;8.30;86.70;;;;;;9178223;19;20733;-69
2022/11/24 04:54:25;;;;;;;14.05;2.33;;;8.20;86.60;;;;;;9174549;19;20049;-69
2022/11/24 04:57:29;;;;;;;18.88;3.53;;;8.20;86.60;;;;;;9180044;19;20011;-67
2022/11/24 05:00:32;;;;;;;;;;;8.20;86.60;;;;;;9179370;19;20357;-68
2022/11/24 05:03:39;;;;;;;23.02;3.28;;;8.30;86.70;;;;;;9178745;19;20260;-67
2022/11/24 05:06:42;;;;;;;16.58;3.13;;;8.20;86.60;;;;;;9179906;19;20025;-67
2022/11/24 05:13:08;;;;;;;25.35;3.45;;;8.20;86.60;;;;;;9176034;19;20372;-67
2022/11/24 05:16:11;;;;;;;16.55;3.55;;;8.20;86.50;;;;;;9178102;19;20010;-68
2022/11/24 05:19:17;;;;;;;29.33;4.50;;;8.20;86.60;;;;;;9179214;19;20029;-67
2022/11/24 05:22:21;;;;;;;33.63;4.00;;;8.20;86.60;;;;;;9173120;19;20014;-67
2022/11/24 05:25:24;;;;;;;17.55;2.92;;;8.20;86.70;;;;;;9179436;19;20051;-67
2022/11/24 05:28:29;;;;;;;20.80;3.45;;;8.20;86.70;;;;;;9178659;19;20102;-68
2022/11/24 05:31:32;;;;;;;26.08;3.30;;;8.20;86.70;;;;;;9178902;19;20022;-67
2022/11/24 05:34:39;;;;;;;13.27;3.25;;;8.20;86.70;;;;;;9175052;19;20026;-68
2022/11/24 05:37:43;;;;;;;22.08;3.90;;;8.20;86.70;;;;;;9178382;19;20014;-68
2022/11/24 05:40:46;;;;;;;20.48;2.97;;;8.20;86.70;;;;;;9176320;19;20010;-67
2022/11/24 05:43:50;;;;;;;32.05;3.80;;;8.20;86.80;;;;;;9176872;19;20015;-67
2022/11/24 05:46:54;;;;;;;13.18;4.00;;;8.20;86.80;;;;;;9177584;19;20014;-68
2022/11/24 05:50:00;;;;;;;24.90;3.45;;;8.30;86.80;;;;;;9177587;19;20018;-68
2022/11/24 05:53:04;;;;;;;25.17;3.15;;;8.30;86.90;;;;;;9172518;19;20015;-69
2022/11/24 05:56:09;;;;;;;30.90;5.70;;;8.30;86.90;;;;;;9177842;19;20076;-67
2022/11/24 05:59:12;;;;;;;14.13;3.35;;;8.30;86.90;;;;;;9175727;19;20018;-67
2022/11/24 06:02:16;;;;;;;26.67;4.20;;;8.30;86.90;;;;;;9172132;19;20077;-68
2022/11/24 06:05:22;;;;;;;27.90;4.30;;;8.30;86.90;;;;;;9176991;19;20015;-67
2022/11/24 06:08:26;;;;;;;13.38;2.83;;;8.30;86.90;;;;;;9177535;19;20010;-68
2022/11/24 06:11:34;;;;;;;32.58;3.97;;;8.30;86.90;;;;;;9176586;19;20038;-67
2022/11/24 06:14:38;;;;;;;24.13;3.92;;;8.30;86.90;;;;;;9172996;19;20586;-68
2022/11/24 06:17:42;;;;;;;22.05;4.00;;;8.30;86.90;;;;;;9177002;19;20019;-67
2022/11/24 06:20:48;;;;;;;30.23;4.88;;;8.30;86.90;;;;;;9175528;19;20019;-68
2022/11/24 06:24:13;;;;;;;19.33;3.25;;;8.30;86.90;;;;;;9176376;19;20042;-68
2022/11/24 06:27:17;;;;;;;16.02;2.72;;;8.30;87.00;;;;;;9174799;19;20048;-67
2022/11/24 06:30:20;;;;;;;;;;;8.40;87.10;;;;;;9177802;19;20014;-68
2022/11/24 06:33:26;;;;;;;21.55;3.45;;;8.40;87.00;;;;;;9175056;19;19922;-68
2022/11/24 06:36:31;;;;;;;16.05;3.17;;;8.40;86.90;;;;;;9176889;19;20365;-69
2022/11/24 06:39:36;;;;;;;23.02;3.75;;;8.40;87.00;;;;;;9173478;19;20357;-69
2022/11/24 06:42:39;;;;;;;21.45;3.70;;;8.40;87.10;;;;;;9175826;19;20011;-67
2022/11/24 06:45:43;;;;;;;26.98;3.45;;;8.40;87.20;;;;;;9176949;19;20015;-68
2022/11/24 06:48:47;;;;;;;19.20;2.83;;;8.50;87.20;;;;;;9172977;19;20367;-68
2022/11/24 06:51:55;;;;;;;29.70;4.70;;;8.50;87.20;;;;;;9173572;19;20019;-67
2022/11/24 06:54:59;;;;;;;22.15;4.38;;;8.50;87.20;;;;;;9169738;19;20018;-69
2022/11/24 06:58:03;;;;;;;25.63;5.38;;;8.60;87.20;;;;;;9183583;19;20018;-68
2022/11/24 07:01:06;;;;;;;26.73;3.80;;;8.60;87.30;;;;;;9179080;19;20041;-67
2022/11/24 07:04:10;;;;;;;;;;;8.60;87.20;;;;;;9183238;19;20006;-68
2022/11/24 07:07:16;;;;;;;28.17;3.65;;;8.60;87.20;;;;;;9179892;19;19935;-69
2022/11/24 07:10:20;;;;;;;14.00;2.60;;;8.70;87.20;;;;;;9180838;19;20024;-68
2022/11/24 07:13:24;;;;;;;25.65;4.32;;;8.70;87.20;;;;;;9175552;19;20022;-67
2022/11/24 07:16:28;;;;;;;28.15;4.47;;;8.70;87.20;;;;;;9174346;19;20049;-68
2022/11/24 07:19:32;;;;;;;32.45;3.85;;;8.80;87.20;;;;;;9173628;19;20029;-67
2022/11/24 07:22:37;;;;;;;18.63;3.15;;;8.80;87.20;;;;;;9170857;19;20019;-68
2022/11/24 07:25:41;;;;;;;16.58;3.33;;;8.80;87.20;;;;;;9173785;19;20022;-68
2022/11/24 07:28:45;;;;;;;22.83;3.40;;;8.80;87.20;;;;;;9172740;19;20014;-69
2022/11/24 07:31:49;;;;;;;15.57;3.33;;;8.90;87.30;;;;;;9170828;19;20026;-68
2022/11/24 07:34:52;;;;;;;;;;;8.90;87.20;;;;;;9171856;19;20022;-68
2022/11/24 07:37:59;;;;;;;12.13;3.08;;;8.90;87.20;;;;;;9164452;19;19930;-68
2022/11/24 07:41:04;;;;;;;19.20;2.95;;;8.90;87.10;;;;;;9167058;19;20745;-69
2022/11/24 07:44:08;;;;;;;18.08;2.40;;;8.90;87.10;;;;;;9163900;19;20020;-68
2022/11/24 07:47:11;;;;;;;;;;;8.90;87.20;;;;;;9166599;19;20014;-69
2022/11/24 07:50:15;;;;;;;18.52;3.50;;;8.90;87.20;;;;;;9166417;19;19922;-69
2022/11/24 07:53:21;;;;;;;15.10;3.13;;;8.90;87.10;;;;;;9161852;19;20039;-68
2022/11/24 07:56:24;;;;;;;19.98;3.72;;;8.90;87.20;;;;;;9165480;19;20046;-68
2022/11/24 07:59:28;;;;;;;24.77;3.58;;;9.00;87.20;;;;;;9165342;19;20811;-68
2022/11/24 08:02:32;;;;;;;16.48;3.22;;;9.00;87.20;;;;;;9167490;19;20015;-68
2022/11/24 08:05:36;;;;;;;;;;;9.00;87.20;;;;;;9173886;19;20329;-68
2022/11/24 08:09:01;;;;;;;18.42;4.63;;;9.00;87.20;;;;;;9173432;19;19918;-67
2022/11/24 08:12:05;;;;;;;17.80;2.78;;;9.00;87.10;;;;;;9166886;19;20503;-68
2022/11/24 08:15:10;;;;;;;11.85;2.75;;;9.00;87.20;;;;;;9176031;19;20475;-67
2022/11/24 08:18:14;;;;;;;24.40;4.65;;;9.00;87.10;;;;;;9170732;19;20015;-69
2022/11/24 08:21:18;;;;;;;11.18;2.50;;;9.00;87.20;;;;;;9172724;19;20025;-68
2022/11/24 08:24:24;;;;;;;12.45;2.95;;;9.10;87.20;;;;;;9169131;19;20468;-68
2022/11/24 08:27:28;;;;;;;15.32;3.25;;;9.10;87.30;;;;;;9171333;19;20043;-68
2022/11/24 08:30:31;;;;;;;;;;;9.10;87.20;;;;;;9168176;19;20019;-67
2022/11/24 08:33:35;;;;;;;9.00;2.30;;;9.10;87.30;;;;;;9166738;19;20372;-68
2022/11/24 08:36:39;;;;;;;10.23;2.88;;;9.10;87.60;;;;;;9174429;19;20022;-69
2022/11/24 08:39:44;;;;;;;6.55;2.22;;;9.10;87.20;;;;;;9176412;19;20052;-69
2022/11/24 08:42:48;;;;;;;11.52;2.83;;;9.10;87.30;;;;;;9172141;19;20101;-69
2022/11/24 08:45:52;;;;;;;10.60;2.78;;;9.10;87.30;;;;;;9178846;19;20052;-69
2022/11/24 08:48:56;;;;;;;10.00;3.35;;;9.20;87.40;;;;;;9176119;19;20367;-69
2022/11/24 08:52:00;;;;;;;10.57;2.70;;;9.20;87.40;;;;;;9168936;19;20018;-68
2022/11/24 08:55:06;;;;;;;8.48;2.30;;;9.20;87.40;;;;;;9162163;19;20022;-69
2022/11/24 08:58:10;;;;;;;9.60;3.15;;;9.20;87.40;;;;;;9170431;19;20018;-68
2022/11/24 09:01:15;;;;;;;7.43;2.53;;;9.30;87.40;;;;;;9169196;19;20018;-68
2022/11/24 09:04:19;;;;;;;14.15;2.92;;;9.30;87.40;;;;;;9171696;19;20691;-69
2022/11/24 09:07:22;;;;;;;;;;;9.30;87.40;;;;;;9170610;19;20102;-68
2022/11/24 09:10:28;;;;;;;11.45;2.75;;;9.30;87.40;;;;;;9172592;19;19923;-68
2022/11/24 09:13:32;;;;;;;8.10;2.90;;;9.30;87.30;;;;;;9169749;19;20038;-68
2022/11/24 09:16:36;;;;;;;9.25;2.95;;;9.30;87.40;;;;;;9167416;19;20371;-68
2022/11/24 09:19:40;;;;;;;8.02;3.03;;;9.30;87.30;;;;;;9177754;19;20017;-68
2022/11/24 09:22:46;;;;;;;7.18;3.38;;;9.40;87.40;;;;;;9166963;19;20023;-69
2022/11/24 09:25:52;;;;;;;12.52;3.78;;;9.40;87.40;;;;;;9168931;19;20018;-68
2022/11/24 09:28:58;;;;;;;12.82;3.58;;;9.40;87.40;;;;;;9173019;19;20026;-68
2022/11/24 09:32:02;;;;;;;7.53;3.95;;;9.40;87.40;;;;;;9174538;19;20018;-69
2022/11/24 09:35:10;;;;;;;13.20;4.43;;;9.40;87.40;;;;;;9172123;19;20021;-68
2022/11/24 09:38:14;;;;;;;10.60;4.60;;;9.40;87.40;;;;;;9170148;19;20015;-69
2022/11/24 09:41:34;;;;;;;11.43;5.20;;;9.50;87.50;;;;;;9170299;19;20460;-69
2022/11/24 09:44:57;;;;;;;10.70;5.40;;;9.50;87.60;;;;;;9172071;19;20027;-69
2022/11/24 09:48:04;;;;;;;12.63;6.00;;;9.50;87.60;;;;;;9175588;19;20086;-68
2022/11/24 09:51:13;;;;;;;10.07;5.63;;;9.50;87.60;;;;;;9173949;19;20046;-69
2022/11/24 09:54:22;;;;;;;12.88;6.80;;;9.60;87.60;;;;;;9169582;19;20452;-68
2022/11/24 09:57:30;;;;;;;10.88;6.25;;;9.60;87.70;;;;;;9167529;19;20019;-69
2022/11/24 10:00:40;;;;;;;;;;;9.70;87.70;;;;;;9175446;19;20015;-69
2022/11/24 10:03:46;;;;;;;13.15;6.43;;;9.70;87.60;;;;;;9159820;19;19926;-68
2022/11/24 10:06:57;;;;;;;15.32;7.63;;;9.70;87.60;;;;;;9162501;19;20035;-67
2022/11/24 10:10:07;;;;;;;8.43;5.72;;;9.80;87.60;;;;;;9168078;19;20495;-68
2022/11/24 10:13:33;;;;;;;12.45;6.50;;;9.80;87.70;;;;;;9170331;19;20014;-68
2022/11/24 10:16:46;;;;;;;9.23;6.75;;;9.90;87.70;;;;;;9162168;19;20024;-68
2022/11/24 10:19:57;;;;;;;14.35;6.00;;;9.90;87.60;;;;;;9167622;19;20090;-69
2022/11/24 10:23:16;;;;;;;9.57;5.60;;;9.90;87.60;;;;;;9159157;19;20356;-67
2022/11/24 10:26:27;;;;;;;15.73;6.47;;;9.90;87.60;;;;;;9162372;19;20048;-68
2022/11/24 10:29:38;;;;;;;14.80;6.53;;;10.00;87.60;;;;;;9170744;19;20026;-68
2022/11/24 10:32:47;;;;;;;12.23;6.78;;;10.10;87.60;;;;;;9177531;19;20022;-68
2022/11/24 10:35:54;;;;;;;15.73;6.00;;;10.10;87.60;;;;;;9170598;19;20019;-68
2022/11/24 10:39:06;;;;;;;13.82;6.60;;;10.10;87.50;;;;;;9167053;19;20086;-68
2022/11/24 10:42:17;;;;;;;21.60;6.95;;;10.20;87.50;;;;;;9170256;19;20502;-68
2022/11/24 10:45:23;;;;;;;18.40;6.43;;;10.20;87.50;;;;;;9173851;19;20022;-68
2022/11/24 10:48:30;;;;;;;14.20;6.47;;;10.20;87.40;;;;;;9173778;19;20014;-68
2022/11/24 10:51:53;;;;;;;15.02;6.20;;;10.20;87.50;;;;;;9169511;19;20019;-68
2022/11/24 10:54:59;;;;;;;19.92;5.93;;;10.30;87.50;;;;;;9168618;19;20031;-68
2022/11/24 10:58:16;;;;;;;15.73;5.72;;;10.30;87.40;;;;;;9173029;19;20054;-68
2022/11/24 11:01:29;;;;;;;13.57;6.00;;;10.30;87.40;;;;;;9175049;19;20019;-68
2022/11/24 11:04:35;;;;;;;8.23;3.60;;;10.30;87.40;;;;;;9174779;19;20026;-69
2022/11/24 11:07:39;;;;;;;10.90;5.53;;;10.40;87.50;;;;;;9168519;19;20018;-68
2022/11/24 11:10:44;;;;;;;18.48;5.25;;;10.40;87.40;;;;;;9169645;19;20251;-68
2022/11/24 11:13:51;;;;;;;16.95;5.50;;;10.40;87.40;;;;;;9166184;19;20015;-69
2022/11/24 11:16:58;;;;;;;12.88;5.68;;;10.50;87.40;;;;;;9169805;19;20025;-68
2022/11/24 11:20:08;;;;;;;20.20;7.15;;;10.50;87.30;;;;;;9175354;19;20018;-68
2022/11/24 11:23:16;;;;;;;17.73;5.68;;;10.60;87.40;;;;;;9163212;19;20436;-69
2022/11/24 11:26:32;;;;;;;11.20;5.25;;;10.70;87.40;;;;;;9173942;19;20023;-68
2022/11/24 11:29:36;;;;;;;18.25;4.93;;;10.70;87.50;;;;;;9179705;19;20352;-68
2022/11/24 11:33:02;;;;;;;21.15;5.57;;;10.70;88.00;;;;;;9175811;19;20023;-68
2022/11/24 11:36:26;;;;;;;17.23;5.78;;;10.80;87.30;;;;;;9173314;19;20025;-68
2022/11/24 11:39:31;;;;;;;;;;;10.80;87.20;;;;;;9173301;19;20402;-68
2022/11/24 11:42:37;;;;;;;;;;;10.90;87.20;;;;;;9175150;19;20376;-68
2022/11/24 11:46:05;;;;;;;15.27;5.15;;;10.90;87.10;;;;;;9174806;19;20843;-69
2022/11/24 11:49:13;;;;;;;15.80;4.85;;;10.90;87.00;;;;;;9166119;19;20019;-70
2022/11/24 11:52:53;;;;;;;20.45;5.07;;;11.00;87.10;;;;;;9165887;19;20368;-68
2022/11/24 11:56:09;;;;;;;12.43;4.63;;;10.90;87.10;;;;;;9165133;19;20010;-68
2022/11/24 11:59:33;;;;;;;14.30;4.55;;;11.00;87.10;;;;;;9167116;19;20417;-68
2022/11/24 12:03:00;;;;;;;20.80;5.60;;;11.00;87.10;;;;;;9166373;19;20026;-69
2022/11/24 12:06:19;;;;;;;16.90;4.88;;;11.00;87.10;;;;;;9166819;19;20104;-69
2022/11/24 12:09:36;;;;;;;17.00;4.95;;;11.10;87.20;;;;;;9171626;19;20026;-68
2022/11/24 12:13:07;;;;;;;12.65;4.45;;;11.10;87.10;;;;;;9178614;19;20041;-68
2022/11/24 12:16:23;;;;;;;9.85;4.25;;;11.10;87.00;;;;;;9179932;19;20020;-68
2022/11/24 12:19:50;;;;;;;12.35;4.63;;;11.10;87.00;;;;;;9177192;19;20071;-69
2022/11/24 12:23:05;;;;;;;18.08;4.28;;;11.20;87.00;;;;;;9169319;19;20459;-68
2022/11/24 12:26:16;;;;;;;23.52;4.45;;;11.20;87.00;;;;;;9176340;19;20196;-68
2022/11/24 12:29:44;;;;;;;16.23;3.75;;;11.20;87.00;;;;;;9176571;19;20069;-68
2022/11/24 12:33:21;;;;;;;24.27;4.93;;;11.20;86.90;;;;;;9175917;19;20030;-68
2022/11/24 12:36:40;;;;;;;20.85;4.43;;;11.20;86.80;;;;;;9173814;19;20107;-68
2022/11/24 12:39:53;;;;;;;16.27;3.40;;;11.20;86.80;;;;;;9176208;19;20014;-69
2022/11/24 12:43:04;;;;;;;17.23;3.55;;;11.20;86.80;;;;;;9172594;19;20017;-69
2022/11/24 12:46:15;;;;;;;17.77;3.17;;;11.20;86.70;;;;;;9174977;19;20030;-69
2022/11/24 12:49:26;;;;;;;15.05;3.42;;;11.20;86.80;;;;;;9176127;19;20103;-68
2022/11/24 12:52:34;;;;;;;14.85;3.10;;;11.20;86.70;;;;;;9172220;19;20046;-68
2022/11/24 12:55:41;;;;;;;24.92;3.10;;;11.20;86.60;;;;;;9177113;19;20021;-69
2022/11/24 12:58:51;;;;;;;19.58;4.25;;;11.20;86.60;;;;;;9176681;19;20018;-69
2022/11/24 13:02:06;;;;;;;15.20;2.80;;;11.20;86.60;;;;;;9177789;19;20018;-69
2022/11/24 13:05:21;;;;;;;16.80;2.90;;;11.30;86.60;;;;;;9179089;19;20081;-68
2022/11/24 13:08:27;;;;;;;14.85;2.58;;;11.20;86.60;;;;;;9179222;19;20010;-68
2022/11/24 13:11:41;;;;;;;16.92;3.65;;;11.30;86.60;;;;;;9178391;19;20047;-68
2022/11/24 13:14:51;;;;;;;21.20;3.90;;;11.30;86.50;;;;;;9178504;19;20082;-68
2022/11/24 13:17:55;;;;;;;16.77;2.75;;;11.30;86.60;;;;;;9178521;19;20058;-68
2022/11/24 13:21:34;;;;;;;14.20;3.38;;;11.30;86.50;;;;;;9176190;19;20479;-68
2022/11/24 13:24:40;;;;;;;8.95;1.83;;;11.30;86.50;;;;;;9171593;19;20046;-68
2022/11/24 13:27:51;;;;;;;13.38;3.15;;;11.40;86.60;;;;;;9171203;19;20059;-68
2022/11/24 13:31:12;;;;;;;12.13;2.67;;;11.40;86.50;;;;;;9175523;19;20049;-68
2022/11/24 13:34:47;;;;;;;15.32;3.00;;;11.40;86.40;;;;;;9178041;19;20025;-67
2022/11/24 13:37:52;;;;;;;19.02;3.50;;;11.40;86.30;;;;;;9178008;19;20033;-68
2022/11/24 13:40:56;;;;;;;20.65;3.78;;;11.40;86.30;;;;;;9176621;19;20018;-69
2022/11/24 13:44:27;;;;;;;16.15;4.63;;;11.40;86.30;;;;;;9178254;19;20484;-69
2022/11/24 13:47:42;;;;;;;18.67;2.72;;;11.40;86.20;;;;;;9177456;19;20030;-69
2022/11/24 13:51:10;;;;;;;11.77;2.38;;;11.40;86.10;;;;;;9175724;19;20026;-68
2022/11/24 13:54:14;;;;;;;14.63;3.70;;;11.40;86.10;;;;;;9170127;19;20368;-68
2022/11/24 13:57:33;;;;;;;19.17;2.97;;;11.50;86.20;;;;;;9168517;19;20022;-69
2022/11/24 14:01:02;;;;;;;15.80;3.03;;;11.40;86.00;;;;;;9176464;19;20601;-68
2022/11/24 14:04:23;;;;;;;7.05;2.38;;;11.40;85.90;;;;;;9170849;19;20015;-69
2022/11/24 14:07:36;;;;;;;12.88;2.70;;;11.40;85.90;;;;;;9173745;19;20027;-68
2022/11/24 14:10:41;;;;;;;;;;;11.40;85.90;;;;;;9169835;19;20015;-68
2022/11/24 14:13:46;;;;;;;15.27;2.50;;;11.40;85.90;;;;;;9165699;19;19915;-68
2022/11/24 14:17:15;;;;;;;17.27;3.45;;;11.40;85.90;;;;;;9168632;19;20368;-68
2022/11/24 14:20:26;;;;;;;19.58;3.38;;;11.40;85.80;;;;;;9168345;19;20042;-69
2022/11/24 14:23:30;;;;;;;18.67;2.88;;;11.30;85.70;;;;;;9155203;19;20481;-68
2022/11/24 14:26:35;;;;;;;20.63;3.75;;;11.30;85.80;;;;;;9165640;19;20063;-69
2022/11/24 14:29:53;;;;;;;22.05;3.15;;;11.30;85.70;;;;;;9164112;19;20491;-68
2022/11/24 14:33:01;;;;;;;14.25;2.67;;;11.30;85.70;;;;;;9164489;19;20052;-68
2022/11/24 14:36:05;;;;;;;18.60;3.30;;;11.30;85.70;;;;;;9171896;19;20029;-68
2022/11/24 14:39:13;;;;;;;33.83;4.55;;;11.30;85.70;;;;;;9171284;19;20645;-69
2022/11/24 14:42:20;;;;;;;18.90;3.97;;;11.20;85.60;;;;;;9170731;19;20064;-69
2022/11/24 14:45:23;;;;;;;28.05;3.70;;;11.20;85.60;;;;;;9172037;19;20025;-69
2022/11/24 14:48:32;;;;;;;21.55;2.97;;;11.20;85.60;;;;;;9171204;19;20044;-68
2022/11/24 14:51:38;;;;;;;25.73;3.97;;;11.20;85.60;;;;;;9170257;19;20019;-69
2022/11/24 14:54:47;;;;;;;23.80;4.40;;;11.10;85.60;;;;;;9170546;19;20014;-68
2022/11/24 14:57:51;;;;;;;21.23;4.35;;;11.10;85.50;;;;;;9171375;19;20026;-69
2022/11/24 15:01:11;;;;;;;22.50;3.53;;;11.10;85.50;;;;;;9167656;19;20031;-69
2022/11/24 15:04:19;;;;;;;16.27;4.47;;;11.00;85.50;;;;;;9170951;19;20110;-69
2022/11/24 15:07:45;;;;;;;25.58;3.83;;;11.00;85.50;;;;;;9171206;19;20015;-68
2022/11/24 15:10:49;;;;;;;16.45;3.67;;;11.00;85.50;;;;;;9169447;19;20018;-69
2022/11/24 15:13:55;;;;;;;22.45;3.53;;;11.00;85.50;;;;;;9170817;19;20021;-68
2022/11/24 15:16:59;;;;;;;16.83;3.17;;;10.90;85.40;;;;;;9177527;19;20044;-68
2022/11/24 15:20:11;;;;;;;19.75;3.58;;;10.90;85.40;;;;;;9177056;19;20025;-69
2022/11/24 15:23:26;;;;;;;24.75;4.30;;;10.80;85.30;;;;;;9171754;19;20022;-68
2022/11/24 15:26:32;;;;;;;22.67;4.60;;;10.80;85.30;;;;;;9178473;19;20018;-68
2022/11/24 15:29:44;;;;;;;13.50;4.05;;;10.80;85.30;;;;;;9178799;19;20014;-68
2022/11/24 15:32:52;;;;;;;22.00;4.82;;;10.70;85.30;;;;;;9177874;19;20031;-69
2022/11/24 15:35:58;;;;;;;10.75;3.80;;;10.70;85.30;;;;;;9181992;19;20034;-68
2022/11/24 15:39:02;;;;;;;18.15;3.50;;;10.70;85.30;;;;;;9180495;19;20463;-68
2022/11/24 15:42:06;;;;;;;14.63;3.28;;;10.60;85.20;;;;;;9170872;19;20010;-69
2022/11/24 15:45:11;;;;;;;27.58;4.07;;;10.60;85.30;;;;;;9171929;19;20628;-68
2022/11/24 15:48:15;;;;;;;12.80;3.40;;;10.50;85.20;;;;;;9177138;19;20022;-68
2022/11/24 15:51:25;;;;;;;21.77;2.90;;;10.50;85.20;;;;;;9179499;19;20741;-68
2022/11/24 15:54:29;;;;;;;20.27;3.53;;;10.40;85.20;;;;;;9176218;19;20022;-68
2022/11/24 15:57:34;;;;;;;26.25;6.13;;;10.40;85.30;;;;;;9177943;19;21280;-67
2022/11/24 16:00:38;;;;;;;20.90;4.55;;;10.40;85.20;;;;;;9177592;19;20448;-68
2022/11/24 16:03:42;;;;;;;20.48;4.25;;;10.30;85.30;;;;;;9174837;19;20028;-69
2022/11/24 16:06:53;;;;;;;17.33;4.30;;;10.20;85.20;;;;;;9176221;19;20329;-69
2022/11/24 16:09:57;;;;;;;25.98;4.15;;;10.20;85.20;;;;;;9175131;19;20435;-68
2022/11/24 16:13:01;;;;;;;26.10;4.88;;;10.20;85.30;;;;;;9177390;19;20025;-68
2022/11/24 16:16:05;;;;;;;14.32;4.75;;;10.10;85.30;;;;;;9173991;19;20018;-69
2022/11/24 16:19:10;;;;;;;22.80;5.05;;;10.10;85.30;;;;;;9165825;19;20022;-68
2022/11/24 16:22:15;;;;;;;22.05;4.78;;;10.10;85.30;;;;;;9164580;19;20782;-68
2022/11/24 16:25:19;;;;;;;22.25;4.80;;;10.00;85.30;;;;;;9164058;19;20345;-69
2022/11/24 16:28:23;;;;;;;28.83;5.57;;;10.00;85.40;;;;;;9166079;19;20033;-69